Time;durP1;ratioP1;P1;durP2;ratioP2;P2;SDS_P1;SDS_P2;PMS_P1;PMS_P2;Temp;Humidity;BMP_temperature;BMP_pressure;BME280_temperature;BME280_humidity;BME280_pressure;Samples;Min_cycle;Max_cycle;Signal;HPM_P1;HPM_P2
2022/08/08 00:00:30;;;;;;;2.83;0.80;;;17.90;79.60;;;17.43;60.58;101847.34;4153979;28;20092;-75
2022/08/08 00:02:49;;;;;;;1.83;0.95;;;17.90;79.70;;;17.37;61.02;101842.69;4143201;28;20424;-74
2022/08/08 00:05:16;;;;;;;2.85;0.90;;;17.80;79.90;;;17.36;61.00;101842.84;4155181;28;20028;-75
2022/08/08 00:07:36;;;;;;;6.10;1.30;;;17.80;80.60;;;17.24;61.56;101842.41;4146336;28;20113;-75
2022/08/08 00:10:10;;;;;;;2.78;1.20;;;17.70;80.40;;;17.18;61.88;101829.75;4153977;28;20058;-75
2022/08/08 00:12:16;;;;;;;2.20;1.23;;;17.70;80.70;;;17.13;62.55;101840.13;4153726;28;20034;-74
2022/08/08 00:14:51;;;;;;;3.00;1.20;;;17.70;81.10;;;17.07;62.79;101836.31;4151624;28;20066;-74
2022/08/08 00:17:10;;;;;;;2.28;1.38;;;17.60;81.40;;;17.00;63.40;101831.81;4138066;28;20084;-75
2022/08/08 00:19:33;;;;;;;4.88;1.50;;;17.50;81.80;;;16.88;63.63;101833.19;4141756;28;20033;-74
2022/08/08 00:21:46;;;;;;;3.63;1.60;;;17.40;82.00;;;16.88;64.34;101841.19;4142829;28;20030;-74
2022/08/08 00:23:55;;;;;;;2.25;1.30;;;17.40;82.50;;;16.87;64.53;101839.53;4137027;28;20030;-74
2022/08/08 00:25:59;;;;;;;4.03;1.52;;;17.30;82.60;;;16.80;64.32;101843.88;4150032;28;20030;-74
2022/08/08 00:28:04;;;;;;;1.90;1.25;;;17.30;82.60;;;16.73;65.03;101829.56;4120869;28;20042;-74
2022/08/08 00:30:10;;;;;;;3.30;1.40;;;17.20;83.00;;;16.69;65.36;101836.25;4136882;28;20030;-75
2022/08/08 00:32:20;;;;;;;1.98;1.40;;;17.20;83.30;;;16.65;65.81;101840.25;4125107;28;20062;-74
2022/08/08 00:35:17;;;;;;;2.17;1.50;;;17.10;83.60;;;16.58;65.52;101829.41;4137016;28;20037;-75
2022/08/08 00:37:33;;;;;;;3.05;1.58;;;17.10;83.70;;;16.60;66.06;101838.09;4143954;28;20029;-74
2022/08/08 00:40:24;;;;;;;2.80;1.40;;;17.10;83.70;;;16.51;66.18;101837.25;4154409;28;20499;-74
2022/08/08 00:42:45;;;;;;;4.82;1.50;;;17.00;84.00;;;16.47;67.06;101833.25;4120189;28;20537;-75
2022/08/08 00:45:21;;;;;;;2.90;1.65;;;17.00;84.60;;;16.40;67.22;101832.22;4144426;28;20037;-74
2022/08/08 00:48:04;;;;;;;2.70;1.35;;;16.90;84.70;;;16.39;66.96;101835.09;4154203;28;20026;-74
2022/08/08 00:50:45;;;;;;;4.25;1.58;;;16.90;84.50;;;16.36;67.00;101836.25;4153438;28;20033;-74
2022/08/08 00:53:45;;;;;;;2.22;1.60;;;16.80;84.50;;;16.34;67.36;101834.72;4153501;28;20503;-74
2022/08/08 00:56:10;;;;;;;2.80;1.40;;;16.80;84.80;;;16.30;67.69;101839.56;4154109;28;20463;-74
2022/08/08 00:58:45;;;;;;;3.47;1.52;;;16.80;85.20;;;16.26;68.53;101835.56;4154078;28;20026;-75
2022/08/08 01:01:10;;;;;;;4.40;1.73;;;16.70;85.60;;;16.23;68.75;101832.41;4153750;28;20037;-74
2022/08/08 01:03:47;;;;;;;2.10;1.35;;;16.60;85.80;;;16.17;69.07;101828.59;4151475;28;20032;-75
2022/08/08 01:06:41;;;;;;;2.17;1.33;;;16.60;86.10;;;16.07;69.86;101824.44;4153766;28;20448;-75
2022/08/08 01:09:07;;;;;;;3.67;1.65;;;16.60;86.70;;;15.98;70.52;101823.56;4152484;28;20030;-75
2022/08/08 01:11:36;;;;;;;2.10;1.45;;;16.50;87.00;;;15.92;71.27;101822.41;4153866;28;20085;-74
2022/08/08 01:14:23;;;;;;;4.38;1.90;;;16.40;87.50;;;15.89;70.66;101819.22;4153838;28;20477;-75
2022/08/08 01:16:57;;;;;;;3.13;1.40;;;16.40;87.10;;;15.86;70.49;101823.06;4153362;28;20439;-74
2022/08/08 01:19:31;;;;;;;2.33;1.60;;;16.40;87.10;;;15.88;70.15;101826.41;4152368;28;20037;-74
2022/08/08 01:22:23;;;;;;;2.63;1.60;;;16.30;86.80;;;15.91;70.09;101814.59;4152272;28;20087;-74
2022/08/08 01:25:03;;;;;;;2.30;1.45;;;16.40;87.00;;;15.90;70.71;101816.41;4145306;28;20100;-74
2022/08/08 01:27:42;;;;;;;5.57;1.50;;;16.30;87.20;;;15.83;71.07;101810.06;4138259;28;20042;-75
2022/08/08 01:30:24;;;;;;;2.28;1.23;;;16.30;87.60;;;15.74;71.58;101820.91;4137211;28;20045;-75
2022/08/08 01:33:25;;;;;;;3.70;1.58;;;16.30;87.80;;;15.68;72.27;101811.72;4143922;28;20121;-74
2022/08/08 01:35:56;;;;;;;4.28;1.65;;;16.20;88.10;;;15.66;72.18;101810.22;4153118;28;20409;-75
2022/08/08 01:38:19;;;;;;;2.88;1.45;;;16.20;88.20;;;15.67;72.13;101811.88;4153317;28;20037;-74
2022/08/08 01:40:44;;;;;;;4.50;2.00;;;16.20;88.40;;;15.68;71.92;101810.91;4153511;28;20025;-75
2022/08/08 01:43:02;;;;;;;2.30;1.50;;;16.10;88.30;;;15.65;72.56;101808.56;4153360;28;20026;-74
2022/08/08 01:45:24;;;;;;;3.88;1.60;;;16.10;88.60;;;15.63;72.47;101798.06;4153369;28;20030;-75
2022/08/08 01:48:04;;;;;;;3.05;1.65;;;16.10;88.70;;;15.59;72.93;101803.91;4153315;28;20493;-74
2022/08/08 01:50:43;;;;;;;5.45;1.92;;;16.10;88.80;;;15.58;72.66;101802.22;4152232;28;20034;-75
2022/08/08 01:53:21;;;;;;;2.33;1.40;;;16.10;88.80;;;15.50;73.17;101801.19;4153067;28;20033;-75
2022/08/08 01:56:33;;;;;;;3.38;1.75;;;16.00;88.90;;;15.47;73.86;101806.03;4153132;28;20038;-75
2022/08/08 01:58:57;;;;;;;4.90;2.00;;;16.00;89.50;;;15.46;74.01;101810.47;4130237;28;20052;-75
2022/08/08 02:01:38;;;;;;;4.10;1.90;;;16.00;89.80;;;15.35;74.49;101799.31;4152532;28;20038;-75
2022/08/08 02:04:09;;;;;;;2.58;1.73;;;15.90;89.90;;;15.32;74.57;101799.63;4152421;28;20026;-75
2022/08/08 02:06:51;;;;;;;4.18;2.03;;;15.90;90.00;;;15.30;74.57;101802.44;4139841;28;20080;-74
2022/08/08 02:09:13;;;;;;;4.78;2.13;;;15.80;90.00;;;15.32;74.73;101803.09;4152754;28;20037;-75
2022/08/08 02:11:35;;;;;;;6.15;2.00;;;15.80;90.10;;;15.26;74.87;101797.63;4152953;28;20034;-75
2022/08/08 02:14:03;;;;;;;2.83;1.58;;;15.80;90.20;;;15.32;75.32;101799.63;4151699;28;20044;-74
2022/08/08 02:16:25;;;;;;;4.93;1.98;;;15.80;90.40;;;15.22;75.29;101796.25;4152982;28;20033;-75
2022/08/08 02:19:01;;;;;;;4.07;1.90;;;15.70;90.20;;;15.24;75.86;101802.25;4152851;28;20109;-74
2022/08/08 02:24:09;;;;;;;3.30;2.00;;;15.70;90.40;;;15.16;76.04;101791.59;4135796;28;20112;-75
2022/08/08 02:26:38;;;;;;;3.83;2.10;;;15.70;90.50;;;15.15;76.21;101787.25;4136068;28;20038;-75
2022/08/08 02:29:16;;;;;;;3.90;2.38;;;15.70;90.60;;;15.19;76.56;101789.44;4150821;28;20034;-74
2022/08/08 02:31:55;;;;;;;2.92;2.10;;;15.70;90.70;;;15.27;76.30;101788.63;4145975;28;20044;-74
2022/08/08 02:34:19;;;;;;;3.25;1.98;;;15.70;90.60;;;15.25;76.08;101780.84;4151725;28;20057;-75
2022/08/08 02:37:05;;;;;;;3.88;1.98;;;15.70;90.60;;;15.26;75.76;101790.44;4151519;28;20025;-74
2022/08/08 02:39:49;;;;;;;4.25;2.13;;;15.70;90.50;;;15.26;76.30;101786.97;4152365;28;20034;-75
2022/08/08 02:41:56;;;;;;;2.72;2.13;;;15.70;90.60;;;15.25;76.53;101791.47;4152860;28;20026;-74
2022/08/08 02:44:39;;;;;;;4.72;1.95;;;15.70;90.70;;;15.24;76.58;101787.13;4167682;28;20029;-74
2022/08/08 02:46:46;;;;;;;5.00;1.83;;;15.70;90.80;;;15.23;76.63;101777.47;4152367;28;20056;-74
2022/08/08 02:49:14;;;;;;;5.57;2.00;;;15.70;90.80;;;15.24;76.52;101781.81;4152474;28;20034;-74
2022/08/08 02:52:04;;;;;;;2.95;1.83;;;15.70;90.80;;;15.18;76.47;101781.63;4152269;28;20022;-74
2022/08/08 02:54:36;;;;;;;4.72;2.00;;;15.70;90.80;;;15.16;76.60;101787.09;4152386;28;20392;-74
2022/08/08 02:57:07;;;;;;;4.35;2.17;;;15.70;90.80;;;15.14;77.13;101783.75;4152662;28;20026;-74
2022/08/08 03:00:00;;;;;;;2.85;1.98;;;15.60;90.90;;;15.15;77.11;101789.91;4151562;28;20417;-74
2022/08/08 03:02:28;;;;;;;2.47;1.90;;;15.70;91.00;;;15.08;77.48;101794.22;4167088;28;20065;-74
2022/08/08 03:04:55;;;;;;;6.13;2.40;;;15.60;91.10;;;15.00;77.99;101795.00;4167432;28;20034;-75
2022/08/08 03:07:23;;;;;;;4.95;2.50;;;15.50;91.20;;;14.99;78.47;101795.16;4167295;28;20025;-74
2022/08/08 03:09:46;;;;;;;3.42;1.90;;;15.50;91.30;;;14.94;78.57;101798.28;4152747;28;20389;-75
2022/08/08 03:12:20;;;;;;;4.28;2.88;;;15.40;91.40;;;14.86;78.80;101800.91;4152247;28;20068;-74
2022/08/08 03:14:46;;;;;;;2.95;2.45;;;15.40;91.40;;;14.82;78.98;101795.06;4152565;28;20096;-74
2022/08/08 03:17:33;;;;;;;8.68;3.78;;;15.40;91.50;;;14.77;79.63;101794.72;4153027;28;20041;-75
2022/08/08 03:20:05;;;;;;;4.07;2.10;;;15.30;91.60;;;14.78;79.64;101812.31;4126045;28;20485;-74
2022/08/08 03:22:06;;;;;;;4.25;2.60;;;15.30;91.80;;;14.71;80.31;101810.44;4121375;28;20405;-75
2022/08/08 03:24:07;;;;;;;2.88;2.42;;;15.30;91.90;;;14.71;80.54;101813.94;4132685;28;20109;-74
2022/08/08 03:26:08;;;;;;;5.75;2.67;;;15.20;91.90;;;14.60;80.50;101805.41;4135570;28;20601;-75
2022/08/08 03:28:29;;;;;;;2.80;2.15;;;15.20;92.10;;;14.67;80.27;101817.06;4157223;28;20046;-75
2022/08/08 03:30:30;;;;;;;4.57;2.83;;;15.20;91.90;;;14.60;80.70;101806.25;4154242;28;20022;-75
2022/08/08 03:34:53;;;;;;;4.57;2.10;;;15.10;92.10;;;14.60;81.20;101818.69;4155181;28;20065;-75
2022/08/08 03:36:53;;;;;;;2.63;1.95;;;15.10;92.20;;;14.58;81.28;101815.34;4154161;28;20420;-75
2022/08/08 03:38:55;;;;;;;3.55;2.22;;;15.10;92.20;;;14.49;81.36;101814.44;4155411;28;20416;-74
2022/08/08 03:40:55;;;;;;;3.70;2.53;;;15.10;92.30;;;14.51;81.68;101819.63;4155211;28;20402;-74
2022/08/08 03:42:57;;;;;;;5.55;2.78;;;15.00;92.40;;;14.46;81.70;101820.06;4155252;28;20026;-75
2022/08/08 03:44:58;;;;;;;3.20;2.38;;;15.00;92.40;;;14.45;82.40;101820.25;4154054;28;20030;-74
2022/08/08 03:46:59;;;;;;;4.80;2.65;;;14.90;92.60;;;14.34;82.67;101806.22;4155047;28;20041;-74
2022/08/08 03:49:03;;;;;;;3.60;2.40;;;14.90;92.70;;;14.36;83.09;101814.88;4153704;28;20045;-74
2022/08/08 03:51:06;;;;;;;3.45;2.28;;;14.90;92.80;;;14.32;82.99;101809.97;4137491;28;20085;-75
2022/08/08 03:53:14;;;;;;;4.53;2.47;;;14.90;92.90;;;14.27;83.04;101804.31;4153912;28;20104;-75
2022/08/08 03:55:18;;;;;;;3.20;2.40;;;14.80;92.80;;;14.32;83.12;101821.47;4153769;28;20189;-74
2022/08/08 03:57:19;;;;;;;4.63;2.42;;;14.80;92.90;;;14.29;83.36;101835.03;4154959;28;20033;-74
2022/08/08 03:59:20;;;;;;;3.25;2.42;;;14.80;93.00;;;14.24;83.56;101818.72;4154809;28;20612;-75
2022/08/08 04:01:21;;;;;;;5.68;2.65;;;14.80;93.00;;;14.26;83.46;101826.53;4153366;28;20026;-75
2022/08/08 04:03:23;;;;;;;4.47;2.72;;;14.80;93.10;;;14.19;83.77;101823.66;4153693;28;20029;-75
2022/08/08 04:05:35;;;;;;;5.38;2.70;;;14.70;93.10;;;14.16;83.38;101818.63;4153664;28;20096;-75
2022/08/08 04:07:38;;;;;;;6.47;2.70;;;14.70;93.00;;;14.20;83.74;101830.63;4153658;28;20539;-75
2022/08/08 04:09:39;;;;;;;5.25;2.90;;;14.70;93.10;;;14.18;83.49;101829.13;4154791;28;20026;-74
2022/08/08 04:11:42;;;;;;;4.60;2.50;;;14.70;93.00;;;14.18;83.25;101821.16;4153546;28;20136;-75
2022/08/08 04:13:43;;;;;;;3.50;2.20;;;14.70;93.00;;;14.18;83.61;101831.78;4153461;28;20447;-74
2022/08/08 04:15:44;;;;;;;7.70;2.28;;;14.70;93.00;;;14.15;83.61;101840.88;4153348;28;20109;-74
2022/08/08 04:17:45;;;;;;;6.03;3.00;;;14.70;93.10;;;14.13;83.72;101836.69;4154493;28;20053;-75
2022/08/08 04:19:46;;;;;;;3.72;2.40;;;14.70;93.10;;;14.13;83.77;101842.81;4153512;28;20401;-75
2022/08/08 04:21:47;;;;;;;4.38;2.45;;;14.70;93.20;;;14.09;84.18;101843.28;4141289;28;20027;-75
2022/08/08 04:23:48;;;;;;;3.67;2.60;;;14.60;93.20;;;14.07;83.86;101840.78;4136971;28;20481;-74
2022/08/08 04:25:48;;;;;;;4.47;2.22;;;14.60;93.20;;;14.04;84.27;101846.38;4150936;28;20030;-74
2022/08/08 04:27:49;;;;;;;5.07;2.53;;;14.60;93.30;;;14.08;84.24;101854.88;4136245;28;20035;-75
2022/08/08 04:29:50;;;;;;;4.30;2.72;;;14.60;93.30;;;14.01;84.24;101852.00;4138312;28;20461;-75
2022/08/08 04:31:51;;;;;;;3.28;2.17;;;14.60;93.30;;;13.95;84.77;101836.69;4152769;28;20026;-74
2022/08/08 04:33:52;;;;;;;3.42;2.65;;;14.60;93.40;;;14.00;84.61;101858.31;4136984;28;20033;-75
2022/08/08 04:35:53;;;;;;;4.47;2.20;;;14.50;93.40;;;13.94;85.18;101848.31;4138137;28;20034;-75
2022/08/08 04:37:54;;;;;;;5.95;2.88;;;14.50;93.50;;;13.97;85.25;101861.25;4120733;28;20548;-75
2022/08/08 04:39:55;;;;;;;5.03;2.60;;;14.50;93.60;;;13.96;85.57;101858.75;4137921;28;20026;-74
2022/08/08 04:41:56;;;;;;;4.85;2.78;;;14.50;93.60;;;13.90;85.79;101854.03;4138083;28;20023;-74
2022/08/08 04:43:57;;;;;;;4.97;2.15;;;14.50;93.70;;;13.91;86.27;101863.69;4136859;28;20034;-74
2022/08/08 04:45:58;;;;;;;4.28;2.28;;;14.40;93.80;;;13.84;86.36;101855.47;4137813;28;20034;-75
2022/08/08 04:47:59;;;;;;;4.97;2.97;;;14.40;93.90;;;13.80;86.62;101860.25;4155131;28;20539;-75
2022/08/08 04:50:00;;;;;;;6.78;2.72;;;14.40;94.10;;;13.79;87.22;101868.38;4141775;28;20030;-74
2022/08/08 04:52:01;;;;;;;3.30;2.50;;;14.30;94.10;;;13.81;86.95;101866.38;4144757;28;20406;-74
2022/08/08 04:54:02;;;;;;;4.88;2.65;;;14.30;94.20;;;13.78;86.93;101867.53;4149210;28;20113;-75
2022/08/08 04:56:03;;;;;;;7.43;2.60;;;14.30;94.30;;;13.76;87.15;101866.00;4153898;28;20022;-74
2022/08/08 04:58:04;;;;;;;4.80;2.88;;;14.30;94.30;;;13.74;87.33;101871.44;4153218;28;20029;-74
2022/08/08 05:00:06;;;;;;;5.75;2.55;;;14.30;94.40;;;13.69;87.55;101864.94;4153942;28;20562;-74
2022/08/08 05:02:07;;;;;;;4.47;2.60;;;14.20;94.40;;;13.68;87.58;101872.03;4136477;28;20053;-74
2022/08/08 05:04:08;;;;;;;6.38;3.13;;;14.20;94.50;;;13.65;87.77;101860.94;4152568;28;20459;-74
2022/08/08 05:06:09;;;;;;;4.07;3.00;;;14.20;94.50;;;13.68;87.71;101868.56;4152787;28;20048;-74
2022/08/08 05:08:12;;;;;;;3.33;2.33;;;14.20;94.50;;;13.69;87.87;101872.88;4153873;28;20026;-75
2022/08/08 05:10:13;;;;;;;3.60;2.28;;;14.20;94.60;;;13.71;87.53;101870.91;4153944;28;20558;-74
2022/08/08 05:12:14;;;;;;;5.07;2.95;;;14.20;94.50;;;13.69;87.52;101872.88;4168750;28;20034;-74
2022/08/08 05:14:15;;;;;;;3.95;2.65;;;14.20;94.50;;;13.75;87.00;101878.44;4152567;28;20087;-74
2022/08/08 05:16:16;;;;;;;3.80;2.90;;;14.20;94.50;;;13.73;87.53;101874.25;4153503;28;20022;-74
2022/08/08 05:18:17;;;;;;;3.53;3.00;;;14.20;94.50;;;13.73;87.65;101871.63;4153424;28;20050;-74
2022/08/08 05:20:18;;;;;;;5.05;2.53;;;14.20;94.50;;;13.73;87.24;101875.09;4151989;28;20026;-74
2022/08/08 05:22:20;;;;;;;3.72;2.63;;;14.20;94.50;;;13.77;87.45;101880.91;4136323;28;20031;-75
2022/08/08 05:24:21;;;;;;;4.05;2.80;;;14.20;94.50;;;13.77;87.23;101886.22;4137401;28;20460;-74
2022/08/08 05:26:21;;;;;;;7.18;2.65;;;14.30;94.50;;;13.77;87.62;101887.06;4149271;28;20061;-75
2022/08/08 05:28:22;;;;;;;4.68;3.03;;;14.30;94.60;;;13.78;87.60;101879.94;4132073;28;20042;-75
2022/08/08 05:30:23;;;;;;;4.28;2.80;;;14.30;94.60;;;13.77;87.91;101886.22;4137095;28;20065;-75
2022/08/08 05:32:25;;;;;;;4.40;3.08;;;14.30;94.70;;;13.79;87.43;101889.59;4137222;28;20034;-75
2022/08/08 05:34:54;;;;;;;5.32;2.92;;;14.30;94.60;;;13.84;86.55;101888.16;4132496;28;20054;-75
2022/08/08 05:36:58;;;;;;;5.32;2.97;;;14.40;94.40;;;13.91;86.08;101893.69;4138279;28;20120;-75
2022/08/08 05:39:01;;;;;;;5.90;2.33;;;14.40;94.20;;;13.96;85.50;101890.56;4153420;28;20463;-75
2022/08/08 05:41:03;;;;;;;4.75;2.60;;;14.40;94.10;;;14.00;85.34;101889.31;4152241;28;20108;-74
2022/08/08 05:43:09;;;;;;;7.60;2.85;;;14.50;94.00;;;14.06;84.61;101896.66;4153146;28;20083;-75
2022/08/08 05:45:13;;;;;;;4.88;2.72;;;14.60;94.10;;;14.08;84.06;101894.69;4151705;28;20500;-74
2022/08/08 05:47:16;;;;;;;6.10;2.70;;;14.60;93.70;;;14.18;83.98;101900.78;4152256;28;20037;-75
2022/08/08 05:49:17;;;;;;;4.93;2.88;;;14.70;93.70;;;14.23;83.48;101912.59;4153246;28;20025;-74
2022/08/08 05:51:19;;;;;;;5.07;2.42;;;14.70;93.60;;;14.26;83.72;101909.63;4152126;28;20378;-74
2022/08/08 05:53:24;;;;;;;4.43;2.60;;;14.80;93.60;;;14.30;83.43;101896.91;4152054;28;20056;-74
2022/08/08 05:55:27;;;;;;;4.60;2.47;;;14.80;93.50;;;14.36;82.95;101907.78;4152084;28;20057;-74
2022/08/08 05:57:32;;;;;;;4.43;2.40;;;14.80;93.40;;;14.39;82.55;101896.03;4152032;28;20497;-74
2022/08/08 05:59:37;;;;;;;3.95;3.15;;;14.90;93.30;;;14.50;82.10;101897.59;4152059;28;20080;-75
2022/08/08 06:01:44;;;;;;;6.88;3.08;;;14.90;93.20;;;14.53;81.77;101908.75;4151713;28;20025;-74
2022/08/08 06:03:49;;;;;;;3.88;2.72;;;15.00;93.10;;;14.53;81.80;101895.47;4153079;28;20091;-75
2022/08/08 06:06:05;;;;;;;4.05;2.70;;;15.00;93.00;;;14.63;81.50;101912.16;4135375;28;20034;-74
2022/08/08 06:08:08;;;;;;;6.88;3.00;;;15.10;93.00;;;14.54;81.20;101894.50;4151864;28;20029;-74
2022/08/08 06:10:10;;;;;;;5.63;2.65;;;15.20;93.00;;;14.72;81.13;101910.41;4151756;28;20034;-74
2022/08/08 06:12:12;;;;;;;4.90;3.08;;;15.20;92.90;;;14.77;80.60;101908.09;4152876;28;20030;-74
2022/08/08 06:14:14;;;;;;;5.13;2.70;;;15.30;92.80;;;14.84;80.47;101901.19;4151780;28;20065;-74
2022/08/08 06:16:15;;;;;;;4.40;2.58;;;15.30;92.70;;;14.90;80.02;101908.53;4151499;28;20026;-74
2022/08/08 06:18:17;;;;;;;4.53;2.67;;;15.40;92.60;;;14.98;80.05;101911.25;4151378;28;20042;-74
2022/08/08 06:20:18;;;;;;;3.80;2.40;;;15.50;92.60;;;15.03;79.80;101908.09;4152152;28;20030;-74
2022/08/08 06:22:19;;;;;;;4.60;2.60;;;15.50;92.50;;;15.08;79.86;101916.47;4145776;28;20076;-74
2022/08/08 06:24:20;;;;;;;5.65;2.80;;;15.60;92.50;;;15.12;78.99;101908.00;4152719;28;20037;-74
2022/08/08 06:26:29;;;;;;;2.95;2.35;;;15.60;92.40;;;15.24;78.89;101912.06;4148954;28;20504;-74
2022/08/08 06:28:45;;;;;;;3.63;2.67;;;15.70;92.30;;;15.27;78.64;101911.75;4135219;28;20038;-74
2022/08/08 06:30:50;;;;;;;6.20;2.92;;;15.80;92.30;;;15.30;78.65;101903.47;4136388;28;20040;-74
2022/08/08 06:32:56;;;;;;;4.57;2.53;;;15.80;92.30;;;15.40;78.54;101904.19;4135558;28;20109;-74
2022/08/08 06:35:08;;;;;;;4.85;2.83;;;15.90;92.30;;;15.45;78.45;101912.50;4134953;28;20425;-74
2022/08/08 06:37:12;;;;;;;5.40;3.33;;;15.90;92.10;;;15.53;77.60;101916.25;4135294;28;20029;-74
2022/08/08 06:39:14;;;;;;;4.18;2.70;;;16.00;92.00;;;15.59;77.68;101910.28;4136532;28;20385;-74
2022/08/08 06:41:17;;;;;;;5.88;2.50;;;16.10;91.90;;;15.80;77.07;101916.03;4135293;28;20054;-74
2022/08/08 06:43:21;;;;;;;4.85;2.55;;;16.20;91.90;;;15.96;76.05;101918.72;4119116;28;20027;-74
2022/08/08 06:45:23;;;;;;;3.83;2.55;;;16.30;91.70;;;16.07;75.59;101928.25;4136412;28;20389;-74
2022/08/08 06:47:24;;;;;;;4.72;2.88;;;16.40;91.60;;;16.07;75.32;101918.41;4135197;28;20041;-75
2022/08/08 06:49:27;;;;;;;6.43;2.70;;;16.50;91.50;;;16.17;75.00;101934.22;4135175;28;20034;-74
2022/08/08 06:51:29;;;;;;;6.90;2.70;;;16.50;91.40;;;16.18;74.82;101926.09;4121367;28;20056;-74
2022/08/08 06:53:31;;;;;;;4.13;2.55;;;16.60;91.20;;;16.29;75.09;101940.91;4157798;28;20041;-74
2022/08/08 06:55:34;;;;;;;5.20;2.88;;;16.70;91.30;;;16.29;74.81;101941.75;4152552;28;20040;-74
2022/08/08 06:57:36;;;;;;;4.90;2.60;;;16.80;91.20;;;16.35;74.69;101953.56;4151334;28;20160;-74
2022/08/08 06:59:36;;;;;;;5.40;2.30;;;16.80;91.10;;;16.35;74.72;101940.25;4167505;28;20088;-74
2022/08/08 07:01:46;;;;;;;5.40;2.55;;;16.90;91.10;;;16.44;74.57;101944.59;4151029;28;20026;-74
2022/08/08 07:04:17;;;;;;;4.50;2.65;;;16.90;91.10;;;16.49;74.51;101953.75;4167100;28;20041;-74
2022/08/08 07:06:23;;;;;;;3.90;2.40;;;17.00;91.10;;;16.57;73.55;101951.16;4151468;28;20034;-74
2022/08/08 07:08:33;;;;;;;6.05;2.58;;;17.10;90.80;;;16.69;73.47;101961.47;4151119;28;20029;-74
2022/08/08 07:10:45;;;;;;;6.10;2.78;;;17.10;90.80;;;16.81;71.88;101952.16;4151219;28;20034;-74
2022/08/08 07:13:02;;;;;;;3.78;2.38;;;17.30;90.30;;;16.90;71.30;101953.81;4135176;28;20054;-74
2022/08/08 07:15:07;;;;;;;8.55;2.70;;;17.40;90.20;;;17.04;70.72;101953.97;4151020;28;20100;-74
2022/08/08 07:17:22;;;;;;;5.68;2.67;;;17.50;89.90;;;17.16;70.36;101962.44;4152033;28;20073;-74
2022/08/08 07:19:53;;;;;;;4.90;2.60;;;17.60;89.90;;;17.28;69.76;101965.56;4135297;28;20025;-74
2022/08/08 07:22:07;;;;;;;4.60;2.33;;;17.70;89.40;;;17.45;68.80;101960.03;4138812;28;20057;-74
2022/08/08 07:24:18;;;;;;;7.18;2.50;;;17.80;88.90;;;17.44;68.90;101953.03;4135121;28;20065;-74
2022/08/08 07:26:21;;;;;;;4.20;2.53;;;17.90;88.70;;;17.59;68.26;101962.00;4147549;28;20026;-74
2022/08/08 07:28:23;;;;;;;6.03;2.70;;;18.00;88.40;;;17.68;67.62;101966.31;4118490;28;20094;-74
2022/08/08 07:30:24;;;;;;;5.60;2.42;;;18.10;87.90;;;17.79;67.41;101964.28;4137700;28;20057;-74
2022/08/08 07:32:26;;;;;;;3.75;2.38;;;18.20;87.90;;;17.87;67.42;101962.41;4152346;28;20041;-74
2022/08/08 07:34:28;;;;;;;7.78;2.60;;;18.30;87.70;;;17.95;66.77;101961.56;4152152;28;20026;-74
2022/08/08 07:36:31;;;;;;;3.63;2.13;;;18.40;87.40;;;18.05;67.31;101960.31;4134523;28;20049;-74
2022/08/08 07:38:36;;;;;;;6.13;2.25;;;18.50;87.70;;;18.08;67.26;101965.31;4152084;28;20508;-74
2022/08/08 07:40:37;;;;;;;4.10;2.33;;;18.60;87.60;;;18.19;66.53;101966.75;4150957;28;20030;-74
2022/08/08 07:42:40;;;;;;;5.93;2.67;;;18.70;87.20;;;18.25;66.43;101961.53;4134762;28;20029;-74
2022/08/08 07:44:42;;;;;;;8.95;2.60;;;18.80;87.00;;;18.38;65.77;101968.97;4150968;28;20034;-74
2022/08/08 07:46:44;;;;;;;6.22;2.25;;;18.90;86.60;;;18.48;64.96;101948.22;4150700;28;20525;-74
2022/08/08 07:48:45;;;;;;;4.57;2.22;;;19.00;85.80;;;18.68;64.83;101965.44;4134497;28;20042;-75
2022/08/08 07:50:49;;;;;;;4.07;2.28;;;19.10;85.80;;;18.79;63.15;101958.84;4150800;28;20595;-74
2022/08/08 07:53:17;;;;;;;4.68;1.73;;;19.20;85.00;;;18.94;63.29;101956.19;4150671;28;20040;-74
2022/08/08 07:55:29;;;;;;;4.95;2.20;;;19.30;84.70;;;19.07;62.75;101959.09;4132857;28;20595;-74
2022/08/08 07:57:48;;;;;;;3.70;2.05;;;19.50;84.30;;;19.20;62.84;101956.63;4134467;28;20545;-75
2022/08/08 08:00:10;;;;;;;4.70;2.30;;;19.60;84.50;;;19.41;60.76;101958.63;4152119;28;20026;-74
2022/08/08 08:02:18;;;;;;;3.55;2.20;;;19.80;82.80;;;19.53;61.23;101957.97;4150882;28;20489;-74
2022/08/08 08:04:24;;;;;;;3.33;1.90;;;20.00;83.30;;;19.66;57.59;101949.28;4153347;28;20408;-74
2022/08/08 08:06:26;;;;;;;4.18;1.70;;;20.10;80.60;;;19.91;57.08;101955.16;4132071;28;20461;-75
2022/08/08 08:08:45;;;;;;;5.35;2.42;;;20.30;80.00;;;20.01;56.75;101955.69;4142341;28;20024;-75
2022/08/08 08:10:55;;;;;;;3.78;2.00;;;20.40;79.30;;;20.22;54.95;101958.41;4141301;28;20117;-75
2022/08/08 08:13:21;;;;;;;6.45;2.03;;;20.60;77.90;;;20.19;55.86;101940.03;4140108;28;20026;-75
2022/08/08 08:15:25;;;;;;;7.78;2.30;;;20.70;79.00;;;20.45;54.42;101963.63;4142218;28;20492;-74
2022/08/08 08:17:28;;;;;;;4.28;1.77;;;20.80;77.40;;;20.50;54.47;101950.47;4152702;28;20038;-75
2022/08/08 08:19:31;;;;;;;3.00;1.57;;;20.90;77.50;;;20.50;54.01;101956.66;4151404;28;20092;-75
2022/08/08 08:21:47;;;;;;;6.47;1.70;;;21.00;77.10;;;20.66;53.85;101961.78;4149018;28;20287;-76
2022/08/08 08:23:48;;;;;;;4.60;2.22;;;21.10;76.80;;;20.60;52.31;101935.75;4153078;28;20281;-75
2022/08/08 08:25:49;;;;;;;3.75;1.90;;;21.20;75.40;;;20.80;51.91;101968.91;4149402;28;20028;-75
2022/08/08 08:27:50;;;;;;;5.57;1.80;;;21.30;74.80;;;20.88;50.59;101970.63;4167884;28;20033;-75
2022/08/08 08:29:50;;;;;;;3.20;1.50;;;21.30;73.50;;;20.88;50.75;101939.25;4130645;28;20449;-75
2022/08/08 08:31:51;;;;;;;2.03;1.67;;;21.40;73.70;;;21.08;49.54;101960.06;4152234;28;20057;-75
2022/08/08 08:33:53;;;;;;;3.92;1.65;;;21.50;72.30;;;20.96;47.91;101938.31;4149004;28;20022;-75
2022/08/08 08:35:54;;;;;;;5.00;1.80;;;21.50;70.70;;;21.16;48.19;101951.88;4135690;28;20038;-75
2022/08/08 08:37:55;;;;;;;3.58;1.45;;;21.60;70.90;;;21.24;47.15;101941.00;4136552;28;20026;-75
2022/08/08 08:39:56;;;;;;;7.25;2.20;;;21.70;69.90;;;21.42;46.85;101958.25;4135927;28;20022;-75
2022/08/08 08:41:58;;;;;;;1.92;1.15;;;21.80;69.70;;;21.55;47.32;101957.50;4149286;28;20025;-75
2022/08/08 08:44:00;;;;;;;1.83;1.20;;;21.90;70.10;;;21.67;47.14;101949.72;4146002;28;20031;-75
2022/08/08 08:46:06;;;;;;;7.63;1.58;;;22.00;70.10;;;21.78;45.23;101958.03;4137082;28;20089;-77
2022/08/08 08:48:08;;;;;;;2.60;1.38;;;22.10;67.90;;;21.80;45.19;101936.34;4136738;28;20031;-76
2022/08/08 08:50:09;;;;;;;3.80;1.50;;;22.20;67.70;;;21.93;44.25;101944.47;4136002;28;20038;-74
2022/08/08 08:52:16;;;;;;;2.88;1.17;;;22.30;66.80;;;21.89;45.07;101922.53;4144342;28;20076;-74
2022/08/08 08:54:20;;;;;;;4.82;1.50;;;22.40;67.80;;;22.02;44.19;101935.19;4144274;28;20026;-74
2022/08/08 08:56:24;;;;;;;3.60;1.40;;;22.40;66.70;;;22.17;43.56;101951.16;4136076;28;20026;-74
2022/08/08 08:58:38;;;;;;;5.68;1.35;;;22.50;65.70;;;22.16;43.50;101928.03;4119961;28;20027;-74
2022/08/08 09:00:39;;;;;;;3.13;1.30;;;22.60;66.20;;;22.24;43.11;101922.44;4142372;28;20033;-74
2022/08/08 09:02:42;;;;;;;2.28;1.17;;;22.70;65.80;;;22.34;43.15;101929.06;4138694;28;20026;-74
2022/08/08 09:04:46;;;;;;;2.25;0.95;;;22.80;65.90;;;22.46;43.26;101926.63;4120513;28;20035;-74
2022/08/08 09:06:52;;;;;;;3.15;1.35;;;22.90;66.30;;;22.68;42.10;101954.19;4136486;28;20034;-74
2022/08/08 09:09:24;;;;;;;1.77;1.00;;;23.00;64.40;;;22.70;41.32;101928.72;4136507;28;20033;-73
2022/08/08 09:11:27;;;;;;;4.70;1.00;;;23.10;63.70;;;22.69;41.32;101929.78;4159372;28;20037;-73
2022/08/08 09:13:29;;;;;;;2.25;1.05;;;23.10;63.60;;;22.74;41.13;101913.00;4153485;28;20033;-76
2022/08/08 09:15:30;;;;;;;4.10;1.17;;;23.20;63.30;;;22.91;41.02;101925.81;4153630;28;20065;-76
2022/08/08 09:17:32;;;;;;;3.42;1.20;;;23.20;63.30;;;23.07;40.40;101938.84;4152463;28;20084;-76